Time;durP1;ratioP1;P1;durP2;ratioP2;P2;SDS_P1;SDS_P2;PMS_P1;PMS_P2;Temp;Humidity;BMP_temperature;BMP_pressure;BME280_temperature;BME280_humidity;BME280_pressure;Samples;Min_cycle;Max_cycle;Signal;HPM_P1;HPM_P2
2024/01/27 00:03:14;;;;;;;7.35;2.72;;;;;;;4.36;97.25;101571.72;12208242;19;20019;-81
2024/01/27 00:07:17;;;;;;;11.80;1.95;;;;;;;4.34;95.80;101579.22;12203094;19;20497;-80
2024/01/27 00:11:19;;;;;;;10.35;2.00;;;;;;;4.37;94.63;101580.75;12183837;19;19996;-81
2024/01/27 00:15:25;;;;;;;5.97;1.92;;;;;;;4.37;93.70;101581.59;12208678;19;20069;-80
2024/01/27 00:19:27;;;;;;;7.78;2.17;;;;;;;4.46;93.41;101583.38;12203719;19;20066;-81
2024/01/27 00:23:29;;;;;;;9.83;2.07;;;;;;;4.48;92.97;101585.91;12183391;19;20007;-80
2024/01/27 00:27:32;;;;;;;9.63;2.47;;;;;;;4.42;93.12;101587.44;12210976;19;20255;-81
2024/01/27 00:31:33;;;;;;;8.20;2.25;;;;;;;4.30;95.07;101595.06;12206108;19;20006;-80
2024/01/27 00:35:35;;;;;;;4.72;2.08;;;;;;;4.08;96.75;101596.53;12187720;19;20014;-81
2024/01/27 00:39:40;;;;;;;10.67;2.23;;;;;;;3.86;98.63;101599.81;12205901;19;20007;-80
2024/01/27 00:43:42;;;;;;;8.07;1.70;;;;;;;3.66;99.88;101596.47;12207572;19;20018;-82
2024/01/27 00:47:44;;;;;;;3.20;1.60;;;;;;;3.50;100.00;101599.09;12193373;19;20010;-80
2024/01/27 00:51:47;;;;;;;8.57;2.10;;;;;;;3.35;100.00;101609.72;12207759;19;20018;-81
2024/01/27 00:55:50;;;;;;;;;;;;;;;3.19;100.00;101610.44;12203714;19;20027;-80
2024/01/27 00:59:52;;;;;;;4.35;1.88;;;;;;;3.03;100.00;101608.41;12208649;19;19911;-81
2024/01/27 01:03:53;;;;;;;4.90;2.28;;;;;;;2.91;100.00;101628.72;12211216;19;20018;-80
2024/01/27 01:07:55;;;;;;;7.68;1.95;;;;;;;2.81;100.00;101617.94;12212140;19;20018;-81
2024/01/27 01:11:59;;;;;;;5.20;2.50;;;;;;;2.76;100.00;101625.69;12190901;19;20017;-82
2024/01/27 01:16:02;;;;;;;3.75;1.80;;;;;;;2.70;100.00;101619.00;12207531;19;20463;-81
2024/01/27 01:20:04;;;;;;;8.35;2.38;;;;;;;2.63;100.00;101623.34;12184976;19;20027;-81
2024/01/27 01:24:07;;;;;;;6.43;2.05;;;;;;;2.61;100.00;101635.41;12211710;19;20026;-82
2024/01/27 01:28:16;;;;;;;6.20;1.92;;;;;;;2.55;100.00;101644.19;12221071;19;20010;-78
2024/01/27 01:32:18;;;;;;;7.60;2.13;;;;;;;2.51;100.00;101655.38;12216792;19;20011;-81
2024/01/27 01:36:20;;;;;;;8.35;1.67;;;;;;;2.48;100.00;101654.81;12217250;19;20002;-82
2024/01/27 01:40:22;;;;;;;7.87;1.83;;;;;;;2.47;100.00;101656.69;12215363;19;20671;-80
2024/01/27 01:44:29;;;;;;;8.90;2.13;;;;;;;2.43;100.00;101657.13;12182657;19;20015;-81
2024/01/27 01:48:31;;;;;;;8.52;2.70;;;;;;;2.38;100.00;101659.44;12208753;19;20074;-81
2024/01/27 01:52:33;;;;;;;9.55;2.72;;;;;;;2.34;100.00;101661.63;12204493;19;20011;-81
2024/01/27 01:56:36;;;;;;;5.90;2.00;;;;;;;2.34;100.00;101652.59;12175239;19;20010;-81
2024/01/27 02:00:38;;;;;;;7.22;2.28;;;;;;;2.30;100.00;101656.63;12190412;19;20078;-80
2024/01/27 02:04:41;;;;;;;14.32;2.42;;;;;;;2.25;100.00;101652.50;12194022;19;20399;-83
2024/01/27 02:08:43;;;;;;;5.78;2.22;;;;;;;2.20;100.00;101652.09;12174633;19;21200;-81
2024/01/27 02:12:45;;;;;;;7.55;1.92;;;;;;;2.19;100.00;101663.13;12201144;19;20822;-81
2024/01/27 02:16:46;;;;;;;4.30;1.80;;;;;;;2.11;100.00;101658.41;12204989;19;20013;-81
2024/01/27 02:20:48;;;;;;;6.38;2.38;;;;;;;2.05;100.00;101664.47;12184131;19;20275;-80
2024/01/27 02:24:50;;;;;;;14.83;2.80;;;;;;;2.01;100.00;101673.94;12199143;19;20025;-82
2024/01/27 02:28:52;;;;;;;10.10;2.13;;;;;;;2.01;100.00;101673.94;12205539;19;20023;-83
2024/01/27 02:32:56;;;;;;;10.68;2.50;;;;;;;1.92;100.00;101681.09;12182775;19;20006;-81
2024/01/27 02:36:58;;;;;;;8.93;2.60;;;;;;;1.90;100.00;101679.53;12220866;19;20011;-83
2024/01/27 02:41:00;;;;;;;10.57;2.08;;;;;;;1.89;100.00;101675.13;12192244;19;20860;-81
2024/01/27 02:45:03;;;;;;;9.90;2.70;;;;;;;1.87;100.00;101679.84;12203836;19;20465;-82
2024/01/27 02:49:04;;;;;;;;;;;;;;;1.81;100.00;101684.00;12203980;19;20018;-82
2024/01/27 02:53:06;;;;;;;6.88;2.10;;;;;;;1.80;100.00;101683.13;12179446;19;19910;-81
2024/01/27 02:57:08;;;;;;;5.32;1.75;;;;;;;1.79;100.00;101692.31;12200793;19;20455;-81
2024/01/27 03:01:10;;;;;;;7.45;2.30;;;;;;;1.79;100.00;101680.59;12202421;19;20014;-81
2024/01/27 03:05:13;;;;;;;6.95;1.90;;;;;;;1.78;100.00;101690.56;12199604;19;20510;-82
2024/01/27 03:09:15;;;;;;;8.73;1.77;;;;;;;1.79;100.00;101689.59;12179867;19;20007;-81
2024/01/27 03:13:18;;;;;;;7.77;1.47;;;;;;;1.78;100.00;101679.69;12198756;19;20034;-82
2024/01/27 03:17:20;;;;;;;8.30;1.83;;;;;;;1.79;100.00;101683.31;12179737;19;20347;-81
2024/01/27 03:21:22;;;;;;;6.60;2.25;;;;;;;1.78;100.00;101695.16;12198468;19;20003;-81
2024/01/27 03:25:25;;;;;;;5.13;1.53;;;;;;;1.78;100.00;101693.28;12197390;19;20014;-80
2024/01/27 03:29:28;;;;;;;6.47;1.92;;;;;;;1.78;100.00;101696.00;12175421;19;20019;-81
2024/01/27 03:33:30;;;;;;;8.30;2.10;;;;;;;1.70;100.00;101697.78;12202074;19;19999;-81
2024/01/27 03:37:33;;;;;;;3.88;1.83;;;;;;;1.62;100.00;101684.06;12200216;19;21008;-81
2024/01/27 03:41:34;;;;;;;6.72;2.08;;;;;;;1.57;100.00;101687.19;12176923;19;20507;-80
2024/01/27 03:45:36;;;;;;;7.57;1.70;;;;;;;1.51;100.00;101688.63;12197543;19;20481;-80
2024/01/27 03:49:38;;;;;;;4.13;1.77;;;;;;;1.54;100.00;101692.91;12198026;19;20007;-81
2024/01/27 03:53:40;;;;;;;6.17;2.50;;;;;;;1.57;100.00;101692.63;12167553;19;20010;-81
2024/01/27 03:57:42;;;;;;;4.97;1.98;;;;;;;1.56;100.00;101699.94;12196514;19;20691;-81
2024/01/27 04:01:43;;;;;;;4.22;1.90;;;;;;;1.56;100.00;101702.63;12198990;19;20458;-80
2024/01/27 04:05:45;;;;;;;10.43;1.77;;;;;;;1.57;100.00;101706.22;12172848;19;20003;-81
2024/01/27 04:09:47;;;;;;;3.73;1.60;;;;;;;1.58;100.00;101697.06;12200833;19;20011;-82
2024/01/27 04:13:50;;;;;;;10.00;2.03;;;;;;;1.55;100.00;101705.53;12200597;19;20011;-80
2024/01/27 04:17:52;;;;;;;4.65;1.38;;;;;;;1.54;100.00;101703.78;12180561;19;20738;-82
2024/01/27 04:21:54;;;;;;;9.52;2.25;;;;;;;1.53;100.00;101718.38;12195222;19;20006;-82
2024/01/27 04:25:56;;;;;;;4.32;1.50;;;;;;;1.53;100.00;101729.25;12208953;19;20002;-80
2024/01/27 04:29:57;;;;;;;5.73;1.57;;;;;;;1.47;100.00;101722.53;12184359;19;20014;-81
2024/01/27 04:34:02;;;;;;;5.32;1.90;;;;;;;1.52;100.00;101730.25;12201738;19;20011;-82
2024/01/27 04:38:04;;;;;;;8.13;1.90;;;;;;;1.52;100.00;101731.13;12200988;19;20615;-81
2024/01/27 04:42:06;;;;;;;5.33;1.97;;;;;;;1.51;100.00;101733.97;12182373;19;20043;-80
2024/01/27 04:46:08;;;;;;;6.45;1.63;;;;;;;1.49;100.00;101738.69;12200616;19;20006;-81
2024/01/27 04:50:10;;;;;;;12.18;1.95;;;;;;;1.46;100.00;101738.97;12200449;19;20007;-82
2024/01/27 04:54:11;;;;;;;6.53;2.13;;;;;;;1.46;100.00;101741.69;12183433;19;20544;-82
2024/01/27 04:58:14;;;;;;;5.95;2.10;;;;;;;1.43;100.00;101733.81;12198769;19;20006;-82
2024/01/27 05:02:15;;;;;;;4.93;1.67;;;;;;;1.42;100.00;101730.25;12199926;19;20454;-82
2024/01/27 05:06:18;;;;;;;12.80;1.93;;;;;;;1.41;100.00;101733.97;12177550;19;20528;-82
2024/01/27 05:10:22;;;;;;;7.00;1.83;;;;;;;1.36;100.00;101737.09;12196664;19;20018;-81
2024/01/27 05:14:23;;;;;;;6.93;2.10;;;;;;;1.35;100.00;101745.41;12178865;19;20091;-81
2024/01/27 05:18:25;;;;;;;3.85;1.83;;;;;;;1.33;100.00;101742.81;12194787;19;20006;-80
2024/01/27 05:22:27;;;;;;;5.93;1.60;;;;;;;1.27;100.00;101748.81;12197184;19;20026;-82
2024/01/27 05:26:29;;;;;;;9.68;1.98;;;;;;;1.26;100.00;101749.84;12171455;19;20483;-82
2024/01/27 05:30:30;;;;;;;7.78;2.17;;;;;;;1.24;100.00;101750.97;12196149;19;20513;-82
2024/01/27 05:34:32;;;;;;;11.57;2.20;;;;;;;1.23;100.00;101766.41;12196527;19;19999;-81
2024/01/27 05:38:34;;;;;;;8.00;2.83;;;;;;;1.21;100.00;101756.69;12173336;19;20022;-82
2024/01/27 05:42:36;;;;;;;7.72;2.08;;;;;;;1.16;100.00;101768.00;12195468;19;20102;-82
2024/01/27 05:46:38;;;;;;;8.30;2.60;;;;;;;1.14;100.00;101761.81;12191835;19;20364;-80
2024/01/27 05:50:42;;;;;;;9.82;2.38;;;;;;;1.11;100.00;101776.53;12168584;19;20195;-83
2024/01/27 05:54:44;;;;;;;5.82;2.13;;;;;;;1.10;100.00;101779.38;12193627;19;20351;-83
2024/01/27 05:58:46;;;;;;;12.43;2.33;;;;;;;1.08;100.00;101776.81;12192626;19;20038;-84
2024/01/27 06:02:47;;;;;;;10.83;2.40;;;;;;;1.09;100.00;101781.25;12175486;19;20011;-82
2024/01/27 06:06:49;;;;;;;14.03;2.77;;;;;;;1.09;100.00;101777.66;12193961;19;20090;-82
2024/01/27 06:10:51;;;;;;;7.83;1.73;;;;;;;1.09;100.00;101774.97;12194432;19;20098;-81
2024/01/27 06:14:53;;;;;;;7.75;2.03;;;;;;;1.09;100.00;101773.09;12173611;19;20019;-81
2024/01/27 06:18:56;;;;;;;7.43;2.17;;;;;;;1.12;100.00;101786.38;12212827;19;20109;-83
2024/01/27 06:22:58;;;;;;;6.43;2.15;;;;;;;1.11;100.00;101784.69;12199915;19;20010;-81
2024/01/27 06:26:59;;;;;;;8.05;2.00;;;;;;;1.14;100.00;101784.41;12172411;19;20007;-83
2024/01/27 06:31:03;;;;;;;4.80;1.80;;;;;;;1.14;100.00;101787.13;12192374;19;20006;-83
2024/01/27 06:35:05;;;;;;;8.77;2.20;;;;;;;1.17;100.00;101798.72;12193942;19;20031;-81
2024/01/27 06:39:07;;;;;;;12.77;1.92;;;;;;;1.16;100.00;101789.72;12169380;19;20021;-81
2024/01/27 06:43:12;;;;;;;8.27;1.75;;;;;;;1.17;100.00;101796.00;12190373;19;20006;-80
2024/01/27 06:47:15;;;;;;;6.95;1.58;;;;;;;1.18;100.00;101801.28;12189075;19;20519;-81
2024/01/27 06:51:17;;;;;;;11.30;2.22;;;;;;;1.15;100.00;101798.84;12164441;19;20131;-81
2024/01/27 06:55:19;;;;;;;7.27;2.13;;;;;;;1.13;100.00;101792.66;12191284;19;20014;-81
2024/01/27 06:59:20;;;;;;;4.70;1.95;;;;;;;1.13;100.00;101792.66;12192711;19;20023;-81
2024/01/27 07:03:22;;;;;;;3.85;1.67;;;;;;;1.13;100.00;101793.56;12185848;19;20011;-82
2024/01/27 07:07:28;;;;;;;11.90;2.37;;;;;;;1.12;100.00;101799.13;12205183;19;20010;-79
2024/01/27 07:11:30;;;;;;;11.15;2.20;;;;;;;1.12;100.00;101805.41;12181952;19;20031;-80
2024/01/27 07:15:32;;;;;;;9.88;2.35;;;;;;;1.13;100.00;101798.09;12198616;19;20007;-80
2024/01/27 07:19:34;;;;;;;6.03;2.65;;;;;;;1.15;100.00;101801.56;12205371;19;20015;-78
2024/01/27 07:23:36;;;;;;;9.73;2.30;;;;;;;1.20;100.00;101803.84;12187716;19;20842;-79
2024/01/27 07:27:38;;;;;;;7.43;2.10;;;;;;;1.22;100.00;101802.72;12204597;19;20007;-79
2024/01/27 07:31:40;;;;;;;7.20;2.03;;;;;;;1.25;100.00;101799.72;12203584;19;20018;-78
2024/01/27 07:35:42;;;;;;;5.80;2.47;;;;;;;1.29;100.00;101801.16;12200368;19;20006;-79
2024/01/27 07:39:44;;;;;;;7.93;2.63;;;;;;;1.34;100.00;101800.75;12247163;19;20006;-80
2024/01/27 07:43:45;;;;;;;4.93;2.10;;;;;;;1.38;100.00;101790.44;12205580;19;20014;-79
2024/01/27 07:47:47;;;;;;;11.77;2.55;;;;;;;1.45;100.00;101791.59;12184579;19;20018;-82
2024/01/27 07:51:49;;;;;;;6.73;2.77;;;;;;;1.46;100.00;101793.28;12209166;19;20010;-79
2024/01/27 07:55:53;;;;;;;5.20;2.17;;;;;;;1.51;100.00;101800.03;12212951;19;19998;-80
2024/01/27 07:59:55;;;;;;;7.45;3.28;;;;;;;1.58;100.00;101803.91;12190599;19;20006;-80
2024/01/27 08:03:57;;;;;;;5.03;2.27;;;;;;;1.65;100.00;101809.63;12252660;19;20050;-77
2024/01/27 08:07:59;;;;;;;7.00;2.37;;;;;;;1.72;100.00;101808.03;12241749;19;20035;-77
2024/01/27 08:12:01;;;;;;;6.57;1.80;;;;;;;1.77;100.00;101808.47;12227067;19;20044;-80
2024/01/27 08:16:05;;;;;;;6.13;2.53;;;;;;;1.88;100.00;101807.47;12209256;19;20046;-81
2024/01/27 08:20:08;;;;;;;11.50;3.30;;;;;;;1.98;100.00;101804.75;12207802;19;20025;-80
2024/01/27 08:24:10;;;;;;;7.18;2.80;;;;;;;2.09;100.00;101811.88;12187351;19;20087;-80
2024/01/27 08:28:12;;;;;;;6.60;1.98;;;;;;;2.20;100.00;101812.59;12206641;19;20718;-80
2024/01/27 08:32:13;;;;;;;7.97;2.50;;;;;;;2.28;100.00;101818.13;12212318;19;20007;-82
2024/01/27 08:36:15;;;;;;;11.70;2.80;;;;;;;2.39;100.00;101813.53;12184922;19;20007;-78
2024/01/27 08:40:17;;;;;;;13.43;2.70;;;;;;;2.52;100.00;101819.50;12208044;19;20031;-80
2024/01/27 08:44:20;;;;;;;13.38;3.60;;;;;;;2.62;100.00;101820.34;12207827;19;20018;-78
2024/01/27 08:48:22;;;;;;;5.57;2.20;;;;;;;2.76;100.00;101837.19;12181852;19;20051;-81
2024/01/27 08:52:25;;;;;;;10.27;3.00;;;;;;;2.87;100.00;101845.16;12204124;19;20072;-81
2024/01/27 08:56:26;;;;;;;7.32;3.10;;;;;;;3.01;100.00;101841.97;12186386;19;20006;-80
2024/01/27 09:00:29;;;;;;;10.00;3.22;;;;;;;3.11;100.00;101834.59;12203961;19;20014;-81
2024/01/27 09:04:31;;;;;;;6.83;2.40;;;;;;;3.26;100.00;101843.09;12205373;19;20069;-81
2024/01/27 09:08:35;;;;;;;;;;;;;;;3.33;100.00;101840.63;12181622;19;20014;-80
2024/01/27 09:12:37;;;;;;;9.40;3.55;;;;;;;3.40;100.00;101841.75;12202054;19;19919;-79
2024/01/27 09:16:40;;;;;;;10.73;4.00;;;;;;;3.51;100.00;101857.88;12186681;19;20070;-79
2024/01/27 09:20:42;;;;;;;6.80;3.35;;;;;;;3.61;100.00;101872.28;12180940;19;20014;-80
2024/01/27 09:24:44;;;;;;;12.77;4.20;;;;;;;3.76;100.00;101869.03;12201502;19;20130;-80
2024/01/27 09:28:53;;;;;;;11.43;4.20;;;;;;;3.90;100.00;101876.69;12202323;19;20011;-80
2024/01/27 09:32:56;;;;;;;11.70;3.50;;;;;;;4.04;100.00;101869.81;12182488;19;20255;-80
2024/01/27 09:36:57;;;;;;;12.87;4.23;;;;;;;4.16;100.00;101876.72;12201751;19;20007;-80
2024/01/27 09:40:59;;;;;;;9.27;3.70;;;;;;;4.26;100.00;101884.84;12201134;19;20006;-79
2024/01/27 09:45:02;;;;;;;10.45;3.63;;;;;;;4.39;100.00;101881.69;12180276;19;20026;-79
2024/01/27 09:49:04;;;;;;;;;;;;;;;4.53;100.00;101884.72;12202265;19;20007;-79
2024/01/27 09:53:08;;;;;;;13.20;3.83;;;;;;;4.68;100.00;101876.78;12197888;19;19907;-80
2024/01/27 09:57:11;;;;;;;12.52;3.20;;;;;;;4.85;100.00;101882.34;12178057;19;20451;-79
2024/01/27 10:01:16;;;;;;;8.48;3.55;;;;;;;5.00;100.00;101880.75;12203950;19;20007;-78
2024/01/27 10:05:19;;;;;;;13.35;4.00;;;;;;;5.18;100.00;101888.88;12203153;19;20023;-80
2024/01/27 10:09:21;;;;;;;11.93;4.05;;;;;;;5.33;100.00;101884.50;12174942;19;20006;-79
2024/01/27 10:13:27;;;;;;;10.93;3.47;;;;;;;5.41;100.00;101881.78;12194817;19;20046;-80
2024/01/27 10:17:34;;;;;;;10.20;3.85;;;;;;;5.48;100.00;101879.25;12168441;19;20011;-79
2024/01/27 10:21:36;;;;;;;10.15;4.07;;;;;;;5.57;100.00;101866.44;12194236;19;20726;-79
2024/01/27 10:25:39;;;;;;;10.70;3.55;;;;;;;5.61;99.48;101874.13;12196780;19;20074;-79
2024/01/27 10:29:51;;;;;;;8.02;3.22;;;;;;;5.60;99.90;101868.84;12172839;19;20683;-79
2024/01/27 10:33:53;;;;;;;9.45;3.33;;;;;;;5.65;100.00;101871.91;12194213;19;20007;-79
2024/01/27 10:37:56;;;;;;;9.35;3.47;;;;;;;5.64;96.26;101872.94;12203702;19;20073;-78
2024/01/27 10:42:02;;;;;;;9.02;3.20;;;;;;;5.72;95.33;101871.09;12188014;19;20002;-79
2024/01/27 10:46:08;;;;;;;7.28;3.20;;;;;;;5.84;95.28;101841.53;12206626;19;20334;-79
2024/01/27 10:50:11;;;;;;;12.07;4.85;;;;;;;5.97;95.31;101840.22;12205217;19;20038;-80
2024/01/27 10:54:25;;;;;;;9.40;4.93;;;;;;;5.95;95.53;101826.72;12188944;19;20458;-80
2024/01/27 10:58:30;;;;;;;8.15;3.55;;;;;;;6.04;94.94;101824.81;12206229;19;20052;-79
2024/01/27 11:02:33;;;;;;;11.23;3.30;;;;;;;6.12;94.40;101831.13;12185343;19;20022;-80
2024/01/27 11:06:36;;;;;;;10.48;2.92;;;;;;;6.19;91.15;101828.59;12210581;19;20026;-81
2024/01/27 11:10:38;;;;;;;;;;;;;;;6.27;91.32;101817.63;12233079;19;20813;-80
2024/01/27 11:14:40;;;;;;;9.32;2.90;;;;;;;6.45;91.41;101800.13;12195245;19;19921;-80
2024/01/27 11:18:45;;;;;;;12.40;3.20;;;;;;;6.51;89.60;101811.25;12197386;19;20462;-80
2024/01/27 11:22:47;;;;;;;7.95;2.72;;;;;;;6.57;88.46;101815.16;12202795;19;20031;-80
2024/01/27 11:27:06;;;;;;;8.30;2.33;;;;;;;6.66;88.60;101810.53;12177241;19;20014;-79
2024/01/27 11:31:09;;;;;;;19.40;4.13;;;;;;;6.73;87.21;101820.63;12205993;19;20369;-81
2024/01/27 11:35:10;;;;;;;10.68;3.17;;;;;;;6.84;85.56;101814.78;12212373;19;20013;-81
2024/01/27 11:39:28;;;;;;;14.43;3.63;;;;;;;7.04;85.92;101801.47;12182711;19;20015;-80
2024/01/27 11:43:31;;;;;;;9.88;2.60;;;;;;;7.18;85.14;101802.63;12209108;19;20003;-81
2024/01/27 11:47:33;;;;;;;12.13;3.00;;;;;;;7.27;84.02;101800.69;12191704;19;20026;-80
2024/01/27 11:51:35;;;;;;;17.40;3.07;;;;;;;7.37;82.54;101806.81;12207679;19;20006;-81
2024/01/27 11:55:37;;;;;;;14.47;3.37;;;;;;;7.56;83.03;101815.63;12206810;19;20030;-81
2024/01/27 11:59:40;;;;;;;8.02;3.33;;;;;;;7.60;81.44;101822.47;12183941;19;20284;-80
2024/01/27 12:03:42;;;;;;;10.95;2.85;;;;;;;7.75;81.25;101824.22;12208641;19;20002;-82
2024/01/27 12:07:46;;;;;;;15.90;5.88;;;;;;;8.26;80.88;101822.81;12207059;19;20014;-81
2024/01/27 12:11:48;;;;;;;11.02;2.90;;;;;;;8.92;77.54;101818.34;12188405;19;20019;-80
2024/01/27 12:15:50;;;;;;;10.32;2.95;;;;;;;9.62;75.52;101813.34;12204733;19;20018;-81
2024/01/27 12:19:53;;;;;;;14.40;3.47;;;;;;;9.96;75.13;101805.19;12201096;19;20014;-80
2024/01/27 12:23:57;;;;;;;8.23;2.58;;;;;;;10.43;72.21;101823.03;12185556;19;20395;-80
2024/01/27 12:28:02;;;;;;;10.95;2.40;;;;;;;10.62;69.44;101821.50;12205207;19;20010;-79
2024/01/27 12:32:05;;;;;;;9.75;2.30;;;;;;;10.82;66.35;101813.34;12203183;19;20082;-81
2024/01/27 12:36:07;;;;;;;10.90;2.47;;;;;;;11.32;66.67;101811.25;12183482;19;20006;-80
2024/01/27 12:40:20;;;;;;;9.32;3.33;;;;;;;11.74;63.56;101819.47;12197149;19;20105;-79
2024/01/27 12:44:25;;;;;;;14.40;2.30;;;;;;;11.92;62.78;101822.50;12190480;19;20007;-79
2024/01/27 12:48:31;;;;;;;15.68;2.83;;;;;;;12.37;62.09;101814.47;12198207;19;20064;-79
2024/01/27 12:52:33;;;;;;;7.97;2.45;;;;;;;13.00;59.75;101791.84;12201670;19;20058;-80
2024/01/27 12:56:36;;;;;;;8.40;2.40;;;;;;;13.20;54.68;101778.75;12170699;19;20014;-79
2024/01/27 13:00:42;;;;;;;10.70;2.30;;;;;;;13.09;55.04;101762.00;12202081;19;20014;-79
2024/01/27 13:04:45;;;;;;;6.47;2.08;;;;;;;13.20;54.18;101758.53;12192511;19;20105;-82
2024/01/27 13:08:48;;;;;;;13.05;1.80;;;;;;;13.19;52.51;101748.53;12183187;19;20080;-77
2024/01/27 13:12:50;;;;;;;9.57;2.15;;;;;;;12.87;53.09;101747.59;12200111;19;20018;-78
2024/01/27 13:16:54;;;;;;;10.98;2.72;;;;;;;12.14;54.12;101747.72;12197632;19;20023;-81
2024/01/27 13:20:56;;;;;;;12.25;2.20;;;;;;;11.30;52.45;101743.53;12175652;19;20010;-78
2024/01/27 13:25:01;;;;;;;10.20;2.50;;;;;;;10.47;53.57;101738.91;12199762;19;20003;-79
2024/01/27 13:29:08;;;;;;;8.40;2.05;;;;;;;9.93;55.20;101744.16;12199644;19;20022;-83
2024/01/27 13:33:11;;;;;;;9.30;1.58;;;;;;;9.55;55.88;101745.31;12174139;19;20414;-78
2024/01/27 13:37:20;;;;;;;8.15;1.75;;;;;;;9.16;55.72;101740.22;12199933;19;20006;-80
2024/01/27 13:41:39;;;;;;;10.52;3.08;;;;;;;8.81;56.96;101739.97;12186046;19;20007;-79
2024/01/27 13:45:44;;;;;;;11.57;1.98;;;;;;;8.59;58.86;101741.78;12197295;19;20007;-79
2024/01/27 13:49:46;;;;;;;12.07;2.80;;;;;;;8.48;59.53;101735.91;12205992;19;20042;-77
2024/01/27 13:53:49;;;;;;;9.25;1.70;;;;;;;8.36;60.34;101730.88;12203182;19;20053;-81
2024/01/27 13:57:51;;;;;;;7.30;1.83;;;;;;;8.24;60.76;101729.63;12237676;19;20017;-79
2024/01/27 14:01:55;;;;;;;10.13;2.20;;;;;;;8.11;60.78;101726.66;12222104;19;20014;-77
2024/01/27 14:05:57;;;;;;;9.68;2.08;;;;;;;7.98;61.31;101732.78;12206290;19;20017;-79
2024/01/27 14:10:00;;;;;;;9.00;2.30;;;;;;;7.89;61.83;101734.75;12210696;19;20003;-80
2024/01/27 14:14:02;;;;;;;9.65;2.03;;;;;;;7.86;61.94;101712.31;12210124;19;20018;-81
2024/01/27 14:18:06;;;;;;;11.77;2.40;;;;;;;7.76;62.64;101713.44;12180553;19;20070;-81
2024/01/27 14:22:08;;;;;;;8.68;2.17;;;;;;;7.73;62.93;101710.19;12201558;19;20095;-79
2024/01/27 14:26:14;;;;;;;7.07;2.20;;;;;;;7.74;62.75;101714.66;12206335;19;20013;-80
2024/01/27 14:30:17;;;;;;;7.60;1.90;;;;;;;7.69;63.50;101708.88;12173445;19;20022;-80
2024/01/27 14:34:19;;;;;;;13.05;2.03;;;;;;;7.66;63.10;101717.47;12201698;19;20007;-80
2024/01/27 14:38:24;;;;;;;8.15;1.92;;;;;;;7.59;63.22;101722.00;12201405;19;20028;-80
2024/01/27 14:42:27;;;;;;;11.60;2.30;;;;;;;7.52;63.46;101716.34;12195104;19;20015;-81
2024/01/27 14:46:39;;;;;;;6.43;1.70;;;;;;;7.48;63.38;101706.81;12200368;19;20481;-79
2024/01/27 14:50:42;;;;;;;7.65;1.98;;;;;;;7.47;63.58;101705.09;12175463;19;20031;-80
2024/01/27 14:54:44;;;;;;;6.97;2.53;;;;;;;7.40;63.84;101713.19;12203585;19;20002;-80
2024/01/27 14:58:51;;;;;;;10.23;2.22;;;;;;;7.30;64.45;101707.09;12202895;19;20581;-82
2024/01/27 15:02:52;;;;;;;8.07;1.88;;;;;;;7.27;65.46;101707.47;12225811;19;19999;-80
2024/01/27 15:06:55;;;;;;;11.80;2.13;;;;;;;7.27;66.16;101700.09;12248219;19;20022;-81
2024/01/27 15:10:58;;;;;;;9.10;2.35;;;;;;;7.33;66.45;101697.66;12235907;19;20582;-83
2024/01/27 15:15:01;;;;;;;;;;;;;;;7.31;66.22;101686.88;12187326;19;20078;-82
2024/01/27 15:19:04;;;;;;;7.47;2.13;;;;;;;7.27;66.96;101691.88;12203874;19;20322;-80
2024/01/27 15:23:05;;;;;;;14.43;2.05;;;;;;;7.27;67.10;101694.59;12215056;19;20007;-79
2024/01/27 15:27:07;;;;;;;7.32;2.33;;;;;;;7.25;67.14;101693.06;12199391;19;20011;-80
2024/01/27 15:31:12;;;;;;;8.93;2.08;;;;;;;7.11;68.53;101699.34;12215511;19;20018;-79
2024/01/27 15:35:15;;;;;;;9.57;1.83;;;;;;;6.96;69.64;101694.66;12215572;19;20034;-79
2024/01/27 15:39:17;;;;;;;9.43;1.83;;;;;;;6.81;70.80;101697.31;12183802;19;20015;-79
2024/01/27 15:43:19;;;;;;;11.77;2.42;;;;;;;6.67;72.43;101706.25;12215414;19;20009;-79
2024/01/27 15:47:21;;;;;;;5.20;1.70;;;;;;;6.49;73.17;101705.66;12205506;19;20010;-78
2024/01/27 15:51:22;;;;;;;7.43;1.67;;;;;;;6.34;73.92;101713.75;12189187;19;20037;-79
2024/01/27 15:55:27;;;;;;;5.65;1.90;;;;;;;6.15;75.12;101704.03;12221152;19;20074;-79
2024/01/27 15:59:29;;;;;;;6.85;1.52;;;;;;;5.94;76.07;101705.44;12186782;19;20018;-80
2024/01/27 16:03:30;;;;;;;10.05;2.40;;;;;;;5.74;76.94;101698.59;12206987;19;20029;-80
2024/01/27 16:07:32;;;;;;;7.28;1.80;;;;;;;5.57;78.23;101703.22;12205242;19;20081;-80
2024/01/27 16:11:34;;;;;;;5.37;1.30;;;;;;;5.38;79.31;101706.25;12181998;19;20501;-80
2024/01/27 16:15:36;;;;;;;5.88;1.40;;;;;;;5.17;80.21;101702.13;12207109;19;20009;-79
2024/01/27 16:19:38;;;;;;;9.38;1.85;;;;;;;4.99;81.14;101710.47;12206283;19;20074;-79
2024/01/27 16:23:40;;;;;;;9.23;2.07;;;;;;;4.83;81.98;101715.91;12179322;19;20006;-82
2024/01/27 16:27:42;;;;;;;6.07;1.95;;;;;;;4.66;82.96;101720.44;12206855;19;20014;-79
2024/01/27 16:31:44;;;;;;;8.97;1.80;;;;;;;4.54;83.97;101719.03;12201808;19;20030;-79
2024/01/27 16:35:45;;;;;;;10.07;3.30;;;;;;;4.43;84.30;101713.84;12182621;19;20040;-79
2024/01/27 16:39:47;;;;;;;7.63;2.67;;;;;;;4.35;85.38;101722.88;12149430;19;20003;-81
2024/01/27 16:43:51;;;;;;;9.10;2.53;;;;;;;4.25;85.55;101711.19;12227369;19;20018;-78
2024/01/27 16:47:53;;;;;;;9.90;2.13;;;;;;;4.17;86.14;101722.09;12182303;19;20480;-79
2024/01/27 16:51:55;;;;;;;4.30;1.80;;;;;;;4.07;87.65;101717.56;12195959;19;20533;-78
2024/01/27 16:55:57;;;;;;;5.18;1.98;;;;;;;4.01;87.74;101715.47;12203017;19;20014;-78
2024/01/27 16:59:58;;;;;;;11.47;2.50;;;;;;;3.96;88.98;101715.13;12180945;19;20014;-82
2024/01/27 17:04:01;;;;;;;4.78;2.25;;;;;;;3.91;89.39;101724.81;12203909;19;20021;-82
2024/01/27 17:08:03;;;;;;;7.35;1.58;;;;;;;3.84;90.75;101713.69;12203357;19;20971;-79
2024/01/27 17:12:08;;;;;;;6.43;2.17;;;;;;;3.77;91.02;101707.13;12176712;19;20019;-79
2024/01/27 17:16:10;;;;;;;6.90;1.75;;;;;;;3.71;91.55;101697.72;12203731;19;20077;-77
2024/01/27 17:20:12;;;;;;;10.38;1.80;;;;;;;3.63;92.80;101701.25;12198047;19;20003;-77
2024/01/27 17:24:14;;;;;;;7.70;2.47;;;;;;;3.58;92.55;101703.59;12173547;19;20010;-78
2024/01/27 17:28:16;;;;;;;8.95;1.67;;;;;;;3.50;93.52;101692.59;12200370;19;20010;-79
2024/01/27 17:32:18;;;;;;;7.80;2.22;;;;;;;3.44;93.82;101698.69;12213209;19;20009;-81
2024/01/27 17:36:20;;;;;;;15.97;2.53;;;;;;;3.37;94.23;101700.34;12185229;19;20007;-78
2024/01/27 17:40:22;;;;;;;9.82;2.55;;;;;;;3.30;94.53;101711.03;12203418;19;20006;-77
2024/01/27 17:44:25;;;;;;;19.95;4.93;;;;;;;3.12;95.43;101711.00;12199826;19;20037;-81
2024/01/27 17:48:27;;;;;;;;;;;;;;;2.99;97.54;101704.22;12178976;19;20003;-76
2024/01/27 17:52:31;;;;;;;18.08;6.38;;;;;;;2.86;97.27;101705.44;12212084;19;19918;-79
2024/01/27 17:56:33;;;;;;;15.60;5.73;;;;;;;2.77;97.92;101713.66;12177931;19;20022;-78
2024/01/27 18:00:35;;;;;;;14.75;4.68;;;;;;;2.69;98.59;101706.28;12200293;19;20010;-78
2024/01/27 18:04:44;;;;;;;7.63;3.47;;;;;;;2.60;99.48;101710.75;12201154;19;20038;-79
2024/01/27 18:08:46;;;;;;;13.40;3.03;;;;;;;2.57;99.77;101712.94;12178988;19;20027;-78
2024/01/27 18:12:49;;;;;;;15.15;3.47;;;;;;;2.50;100.00;101718.13;12202547;19;20010;-79
2024/01/27 18:16:51;;;;;;;13.30;2.58;;;;;;;2.46;100.00;101716.69;12200894;19;20030;-81
2024/01/27 18:20:53;;;;;;;6.93;2.60;;;;;;;2.39;100.00;101718.31;12179804;19;20019;-81
2024/01/27 18:24:56;;;;;;;191.60;69.53;;;;;;;2.35;100.00;101715.03;12193884;19;20017;-79
2024/01/27 18:28:58;;;;;;;38.72;14.45;;;;;;;2.30;100.00;101714.63;12198349;19;20014;-78
2024/01/27 18:33:00;;;;;;;10.60;5.25;;;;;;;2.25;100.00;101708.75;12181281;19;20007;-79
2024/01/27 18:37:06;;;;;;;43.90;15.00;;;;;;;2.23;100.00;101716.19;12191243;19;20006;-81
2024/01/27 18:41:08;;;;;;;60.33;17.88;;;;;;;2.19;100.00;101707.50;12193330;19;20078;-79